sensor_id;sensor_type;location;lat;lon;timestamp;P1;durP1;ratioP1;P2;durP2;ratioP2
48911;SDS011;34722;52.108;5.044;2022-08-03T00:01:31;7.55;;;2.38;;
48911;SDS011;34722;52.108;5.044;2022-08-03T00:03:58;8.98;;;2.53;;
48911;SDS011;34722;52.108;5.044;2022-08-03T00:06:24;8.18;;;2.60;;
48911;SDS011;34722;52.108;5.044;2022-08-03T00:08:49;8.15;;;3.08;;
48911;SDS011;34722;52.108;5.044;2022-08-03T00:11:18;10.68;;;2.53;;
48911;SDS011;34722;52.108;5.044;2022-08-03T00:13:44;7.32;;;2.85;;
48911;SDS011;34722;52.108;5.044;2022-08-03T00:16:10;7.88;;;2.25;;
48911;SDS011;34722;52.108;5.044;2022-08-03T00:18:37;6.00;;;3.00;;
48911;SDS011;34722;52.108;5.044;2022-08-03T00:21:03;6.68;;;3.60;;
48911;SDS011;34722;52.108;5.044;2022-08-03T00:23:29;6.72;;;3.10;;
48911;SDS011;34722;52.108;5.044;2022-08-03T00:25:55;9.43;;;3.25;;
48911;SDS011;34722;52.108;5.044;2022-08-03T00:28:21;6.72;;;3.33;;
48911;SDS011;34722;52.108;5.044;2022-08-03T00:30:47;7.00;;;2.38;;
48911;SDS011;34722;52.108;5.044;2022-08-03T00:33:13;6.70;;;3.00;;
48911;SDS011;34722;52.108;5.044;2022-08-03T00:35:39;9.13;;;3.13;;
48911;SDS011;34722;52.108;5.044;2022-08-03T00:38:06;9.70;;;3.50;;
48911;SDS011;34722;52.108;5.044;2022-08-03T00:40:32;9.85;;;3.03;;
48911;SDS011;34722;52.108;5.044;2022-08-03T00:42:59;9.60;;;3.00;;
48911;SDS011;34722;52.108;5.044;2022-08-03T00:45:27;8.93;;;3.22;;
48911;SDS011;34722;52.108;5.044;2022-08-03T00:47:57;9.80;;;2.88;;
48911;SDS011;34722;52.108;5.044;2022-08-03T00:50:25;9.02;;;2.70;;
48911;SDS011;34722;52.108;5.044;2022-08-03T00:52:52;11.35;;;3.50;;
48911;SDS011;34722;52.108;5.044;2022-08-03T00:55:19;5.18;;;2.78;;
48911;SDS011;34722;52.108;5.044;2022-08-03T00:57:46;5.65;;;2.53;;
48911;SDS011;34722;52.108;5.044;2022-08-03T01:00:13;14.48;;;3.70;;
48911;SDS011;34722;52.108;5.044;2022-08-03T01:02:41;6.80;;;3.22;;
48911;SDS011;34722;52.108;5.044;2022-08-03T01:05:08;6.78;;;3.65;;
48911;SDS011;34722;52.108;5.044;2022-08-03T01:13:26;9.27;;;3.95;;
48911;SDS011;34722;52.108;5.044;2022-08-03T01:16:24;7.57;;;3.45;;
48911;SDS011;34722;52.108;5.044;2022-08-03T01:22:11;12.02;;;4.07;;
48911;SDS011;34722;52.108;5.044;2022-08-03T01:24:43;12.43;;;4.05;;
48911;SDS011;34722;52.108;5.044;2022-08-03T01:27:21;11.88;;;3.40;;
48911;SDS011;34722;52.108;5.044;2022-08-03T01:30:02;12.97;;;4.97;;
48911;SDS011;34722;52.108;5.044;2022-08-03T01:35:17;9.63;;;3.83;;
48911;SDS011;34722;52.108;5.044;2022-08-03T01:37:52;9.77;;;3.85;;
48911;SDS011;34722;52.108;5.044;2022-08-03T01:40:23;19.83;;;3.97;;
48911;SDS011;34722;52.108;5.044;2022-08-03T01:42:51;12.63;;;4.00;;
48911;SDS011;34722;52.108;5.044;2022-08-03T01:45:19;15.02;;;4.55;;
48911;SDS011;34722;52.108;5.044;2022-08-03T01:47:46;13.30;;;4.95;;
48911;SDS011;34722;52.108;5.044;2022-08-03T01:50:13;12.57;;;4.57;;
48911;SDS011;34722;52.108;5.044;2022-08-03T01:52:43;14.00;;;5.50;;
48911;SDS011;34722;52.108;5.044;2022-08-03T01:55:11;10.07;;;4.50;;
48911;SDS011;34722;52.108;5.044;2022-08-03T01:57:38;12.25;;;4.68;;
48911;SDS011;34722;52.108;5.044;2022-08-03T02:00:07;14.13;;;4.90;;
48911;SDS011;34722;52.108;5.044;2022-08-03T02:02:34;18.25;;;5.10;;
48911;SDS011;34722;52.108;5.044;2022-08-03T02:05:02;9.82;;;5.00;;
48911;SDS011;34722;52.108;5.044;2022-08-03T02:07:31;11.68;;;5.47;;
48911;SDS011;34722;52.108;5.044;2022-08-03T02:09:58;13.75;;;5.32;;
48911;SDS011;34722;52.108;5.044;2022-08-03T02:12:27;13.02;;;5.03;;
48911;SDS011;34722;52.108;5.044;2022-08-03T02:14:55;13.55;;;4.72;;
48911;SDS011;34722;52.108;5.044;2022-08-03T02:17:23;15.98;;;5.45;;
48911;SDS011;34722;52.108;5.044;2022-08-03T02:19:51;13.52;;;5.95;;
48911;SDS011;34722;52.108;5.044;2022-08-03T02:22:18;18.70;;;5.53;;
48911;SDS011;34722;52.108;5.044;2022-08-03T02:24:45;13.70;;;4.85;;
48911;SDS011;34722;52.108;5.044;2022-08-03T02:29:55;14.73;;;5.55;;
48911;SDS011;34722;52.108;5.044;2022-08-03T02:32:28;10.65;;;5.22;;
48911;SDS011;34722;52.108;5.044;2022-08-03T02:34:56;16.67;;;5.95;;
48911;SDS011;34722;52.108;5.044;2022-08-03T02:37:25;16.45;;;5.28;;
48911;SDS011;34722;52.108;5.044;2022-08-03T02:39:57;20.58;;;5.53;;
48911;SDS011;34722;52.108;5.044;2022-08-03T02:42:28;10.90;;;4.82;;
48911;SDS011;34722;52.108;5.044;2022-08-03T02:44:56;15.07;;;4.82;;
48911;SDS011;34722;52.108;5.044;2022-08-03T02:47:25;11.80;;;5.07;;
48911;SDS011;34722;52.108;5.044;2022-08-03T02:49:53;12.68;;;5.65;;
48911;SDS011;34722;52.108;5.044;2022-08-03T02:52:23;14.70;;;5.10;;
48911;SDS011;34722;52.108;5.044;2022-08-03T02:54:52;16.60;;;5.88;;
48911;SDS011;34722;52.108;5.044;2022-08-03T02:57:20;16.17;;;5.22;;
48911;SDS011;34722;52.108;5.044;2022-08-03T02:59:48;18.50;;;6.03;;
48911;SDS011;34722;52.108;5.044;2022-08-03T03:02:16;15.40;;;5.68;;
48911;SDS011;34722;52.108;5.044;2022-08-03T03:04:43;16.63;;;5.47;;
48911;SDS011;34722;52.108;5.044;2022-08-03T03:07:11;14.07;;;5.38;;
48911;SDS011;34722;52.108;5.044;2022-08-03T03:09:38;15.48;;;5.60;;
48911;SDS011;34722;52.108;5.044;2022-08-03T03:12:04;24.27;;;5.70;;
48911;SDS011;34722;52.108;5.044;2022-08-03T03:14:32;20.75;;;5.53;;
48911;SDS011;34722;52.108;5.044;2022-08-03T03:17:00;14.35;;;5.60;;
48911;SDS011;34722;52.108;5.044;2022-08-03T03:19:26;20.08;;;6.13;;
48911;SDS011;34722;52.108;5.044;2022-08-03T03:21:53;22.38;;;6.85;;
48911;SDS011;34722;52.108;5.044;2022-08-03T03:24:20;24.85;;;5.80;;
48911;SDS011;34722;52.108;5.044;2022-08-03T03:26:46;24.08;;;5.03;;
48911;SDS011;34722;52.108;5.044;2022-08-03T03:29:13;16.25;;;5.68;;
48911;SDS011;34722;52.108;5.044;2022-08-03T03:31:39;17.92;;;6.57;;
48911;SDS011;34722;52.108;5.044;2022-08-03T03:34:05;23.48;;;6.25;;
48911;SDS011;34722;52.108;5.044;2022-08-03T03:36:31;16.48;;;5.90;;
48911;SDS011;34722;52.108;5.044;2022-08-03T03:38:57;16.90;;;6.60;;
48911;SDS011;34722;52.108;5.044;2022-08-03T03:41:23;17.98;;;6.20;;
48911;SDS011;34722;52.108;5.044;2022-08-03T03:43:49;17.88;;;5.78;;
48911;SDS011;34722;52.108;5.044;2022-08-03T03:46:15;21.33;;;5.75;;
48911;SDS011;34722;52.108;5.044;2022-08-03T03:48:40;16.48;;;5.88;;
48911;SDS011;34722;52.108;5.044;2022-08-03T03:51:06;16.50;;;8.15;;
48911;SDS011;34722;52.108;5.044;2022-08-03T03:53:33;14.85;;;5.90;;
48911;SDS011;34722;52.108;5.044;2022-08-03T03:55:58;18.08;;;5.97;;
48911;SDS011;34722;52.108;5.044;2022-08-03T03:58:24;23.70;;;5.80;;
48911;SDS011;34722;52.108;5.044;2022-08-03T04:00:49;17.95;;;6.00;;
48911;SDS011;34722;52.108;5.044;2022-08-03T04:03:17;17.85;;;6.78;;
48911;SDS011;34722;52.108;5.044;2022-08-03T04:05:44;20.92;;;5.45;;
48911;SDS011;34722;52.108;5.044;2022-08-03T04:08:28;11.32;;;5.05;;
48911;SDS011;34722;52.108;5.044;2022-08-03T04:16:17;20.08;;;6.55;;
48911;SDS011;34722;52.108;5.044;2022-08-03T04:18:46;17.92;;;5.78;;
48911;SDS011;34722;52.108;5.044;2022-08-03T04:21:16;17.77;;;5.03;;
48911;SDS011;34722;52.108;5.044;2022-08-03T04:23:46;17.30;;;6.57;;
48911;SDS011;34722;52.108;5.044;2022-08-03T04:26:15;18.23;;;5.72;;
48911;SDS011;34722;52.108;5.044;2022-08-03T04:28:45;19.38;;;5.35;;
48911;SDS011;34722;52.108;5.044;2022-08-03T04:31:12;18.58;;;5.88;;
48911;SDS011;34722;52.108;5.044;2022-08-03T04:33:40;11.82;;;5.72;;
48911;SDS011;34722;52.108;5.044;2022-08-03T04:36:08;18.02;;;4.40;;
48911;SDS011;34722;52.108;5.044;2022-08-03T04:38:40;21.50;;;5.07;;
48911;SDS011;34722;52.108;5.044;2022-08-03T04:41:16;17.33;;;6.68;;
48911;SDS011;34722;52.108;5.044;2022-08-03T04:43:43;15.73;;;5.72;;
48911;SDS011;34722;52.108;5.044;2022-08-03T04:46:10;15.05;;;4.85;;
48911;SDS011;34722;52.108;5.044;2022-08-03T04:48:37;15.60;;;6.45;;
48911;SDS011;34722;52.108;5.044;2022-08-03T04:51:03;23.13;;;5.85;;
48911;SDS011;34722;52.108;5.044;2022-08-03T04:53:30;19.02;;;5.20;;
48911;SDS011;34722;52.108;5.044;2022-08-03T04:56:02;21.05;;;6.30;;
48911;SDS011;34722;52.108;5.044;2022-08-03T04:58:29;14.82;;;5.40;;
48911;SDS011;34722;52.108;5.044;2022-08-03T05:00:55;15.50;;;4.88;;
48911;SDS011;34722;52.108;5.044;2022-08-03T05:03:20;14.00;;;5.75;;
48911;SDS011;34722;52.108;5.044;2022-08-03T05:05:46;19.48;;;5.65;;
48911;SDS011;34722;52.108;5.044;2022-08-03T05:08:12;14.43;;;5.43;;
48911;SDS011;34722;52.108;5.044;2022-08-03T05:10:37;22.23;;;6.20;;
48911;SDS011;34722;52.108;5.044;2022-08-03T05:13:03;22.10;;;5.88;;
48911;SDS011;34722;52.108;5.044;2022-08-03T05:15:29;15.82;;;5.43;;
48911;SDS011;34722;52.108;5.044;2022-08-03T05:17:54;10.90;;;5.03;;
48911;SDS011;34722;52.108;5.044;2022-08-03T05:20:20;16.58;;;5.88;;
48911;SDS011;34722;52.108;5.044;2022-08-03T05:22:46;15.82;;;5.13;;
48911;SDS011;34722;52.108;5.044;2022-08-03T05:25:12;15.45;;;5.18;;
48911;SDS011;34722;52.108;5.044;2022-08-03T05:27:38;19.10;;;5.40;;
48911;SDS011;34722;52.108;5.044;2022-08-03T05:30:04;21.83;;;6.68;;
48911;SDS011;34722;52.108;5.044;2022-08-03T05:32:30;17.95;;;4.47;;
48911;SDS011;34722;52.108;5.044;2022-08-03T05:34:55;18.23;;;4.38;;
48911;SDS011;34722;52.108;5.044;2022-08-03T05:37:21;13.40;;;4.22;;
48911;SDS011;34722;52.108;5.044;2022-08-03T05:39:46;17.77;;;5.00;;
48911;SDS011;34722;52.108;5.044;2022-08-03T05:42:13;17.23;;;4.63;;
48911;SDS011;34722;52.108;5.044;2022-08-03T05:44:39;12.82;;;3.47;;
48911;SDS011;34722;52.108;5.044;2022-08-03T05:47:06;16.45;;;3.75;;
48911;SDS011;34722;52.108;5.044;2022-08-03T05:49:31;15.73;;;3.65;;
48911;SDS011;34722;52.108;5.044;2022-08-03T05:51:57;18.73;;;3.95;;
48911;SDS011;34722;52.108;5.044;2022-08-03T05:54:23;10.02;;;4.15;;
48911;SDS011;34722;52.108;5.044;2022-08-03T05:56:48;16.77;;;4.78;;
48911;SDS011;34722;52.108;5.044;2022-08-03T05:59:14;13.27;;;3.88;;
48911;SDS011;34722;52.108;5.044;2022-08-03T06:01:45;16.50;;;4.30;;
48911;SDS011;34722;52.108;5.044;2022-08-03T06:04:11;19.73;;;4.50;;
48911;SDS011;34722;52.108;5.044;2022-08-03T06:06:37;14.48;;;3.78;;
48911;SDS011;34722;52.108;5.044;2022-08-03T06:09:03;21.40;;;5.25;;
48911;SDS011;34722;52.108;5.044;2022-08-03T06:11:28;24.25;;;4.53;;
48911;SDS011;34722;52.108;5.044;2022-08-03T06:13:54;18.25;;;4.60;;
48911;SDS011;34722;52.108;5.044;2022-08-03T06:16:20;18.65;;;4.22;;
48911;SDS011;34722;52.108;5.044;2022-08-03T06:18:45;23.38;;;4.55;;
48911;SDS011;34722;52.108;5.044;2022-08-03T06:21:11;14.60;;;4.22;;
48911;SDS011;34722;52.108;5.044;2022-08-03T06:23:36;15.02;;;3.78;;
48911;SDS011;34722;52.108;5.044;2022-08-03T06:26:02;18.13;;;3.90;;
48911;SDS011;34722;52.108;5.044;2022-08-03T06:28:28;19.73;;;4.20;;
48911;SDS011;34722;52.108;5.044;2022-08-03T06:30:54;11.27;;;4.32;;
48911;SDS011;34722;52.108;5.044;2022-08-03T06:33:20;17.73;;;3.95;;
48911;SDS011;34722;52.108;5.044;2022-08-03T06:35:45;16.38;;;4.32;;
48911;SDS011;34722;52.108;5.044;2022-08-03T06:38:11;21.90;;;5.03;;
48911;SDS011;34722;52.108;5.044;2022-08-03T06:40:37;18.33;;;4.97;;
48911;SDS011;34722;52.108;5.044;2022-08-03T06:43:06;19.98;;;4.90;;
48911;SDS011;34722;52.108;5.044;2022-08-03T06:45:32;19.02;;;4.72;;
48911;SDS011;34722;52.108;5.044;2022-08-03T06:48:02;13.85;;;4.75;;
48911;SDS011;34722;52.108;5.044;2022-08-03T06:50:29;19.45;;;5.30;;
48911;SDS011;34722;52.108;5.044;2022-08-03T06:52:56;16.25;;;4.65;;
48911;SDS011;34722;52.108;5.044;2022-08-03T06:55:22;21.23;;;5.30;;
48911;SDS011;34722;52.108;5.044;2022-08-03T06:57:47;15.40;;;4.70;;
48911;SDS011;34722;52.108;5.044;2022-08-03T07:00:13;17.90;;;5.82;;
48911;SDS011;34722;52.108;5.044;2022-08-03T07:02:39;18.17;;;5.00;;
48911;SDS011;34722;52.108;5.044;2022-08-03T07:05:05;17.05;;;5.15;;
48911;SDS011;34722;52.108;5.044;2022-08-03T07:07:32;28.88;;;5.63;;
48911;SDS011;34722;52.108;5.044;2022-08-03T07:09:57;28.05;;;5.78;;
48911;SDS011;34722;52.108;5.044;2022-08-03T07:12:23;15.90;;;4.70;;
48911;SDS011;34722;52.108;5.044;2022-08-03T07:14:53;16.33;;;5.13;;
48911;SDS011;34722;52.108;5.044;2022-08-03T07:17:20;15.75;;;5.30;;
48911;SDS011;34722;52.108;5.044;2022-08-03T07:19:46;17.48;;;5.53;;
48911;SDS011;34722;52.108;5.044;2022-08-03T07:22:11;18.15;;;4.38;;
48911;SDS011;34722;52.108;5.044;2022-08-03T07:24:37;11.52;;;4.55;;
48911;SDS011;34722;52.108;5.044;2022-08-03T07:27:03;24.50;;;4.85;;
48911;SDS011;34722;52.108;5.044;2022-08-03T07:29:28;17.77;;;4.63;;
48911;SDS011;34722;52.108;5.044;2022-08-03T07:31:54;16.95;;;4.95;;
48911;SDS011;34722;52.108;5.044;2022-08-03T07:34:20;21.83;;;5.25;;
48911;SDS011;34722;52.108;5.044;2022-08-03T07:36:45;16.45;;;5.13;;
48911;SDS011;34722;52.108;5.044;2022-08-03T07:39:11;23.00;;;5.13;;
48911;SDS011;34722;52.108;5.044;2022-08-03T07:41:37;17.48;;;5.45;;
48911;SDS011;34722;52.108;5.044;2022-08-03T07:44:03;15.50;;;5.28;;
48911;SDS011;34722;52.108;5.044;2022-08-03T07:46:29;20.10;;;4.90;;
48911;SDS011;34722;52.108;5.044;2022-08-03T07:48:54;17.80;;;5.00;;
48911;SDS011;34722;52.108;5.044;2022-08-03T07:51:20;19.95;;;5.72;;
48911;SDS011;34722;52.108;5.044;2022-08-03T07:53:46;16.13;;;5.80;;
48911;SDS011;34722;52.108;5.044;2022-08-03T07:56:11;27.85;;;5.70;;
48911;SDS011;34722;52.108;5.044;2022-08-03T07:58:37;23.30;;;5.60;;
48911;SDS011;34722;52.108;5.044;2022-08-03T08:01:03;17.17;;;5.22;;
48911;SDS011;34722;52.108;5.044;2022-08-03T08:03:29;18.73;;;5.88;;
48911;SDS011;34722;52.108;5.044;2022-08-03T08:05:57;19.75;;;6.43;;
48911;SDS011;34722;52.108;5.044;2022-08-03T08:08:52;16.63;;;5.40;;
48911;SDS011;34722;52.108;5.044;2022-08-03T08:11:17;20.52;;;5.82;;
48911;SDS011;34722;52.108;5.044;2022-08-03T08:13:46;20.55;;;6.13;;
48911;SDS011;34722;52.108;5.044;2022-08-03T08:16:11;18.77;;;5.68;;
48911;SDS011;34722;52.108;5.044;2022-08-03T08:18:37;22.92;;;6.07;;
48911;SDS011;34722;52.108;5.044;2022-08-03T08:21:03;15.38;;;5.70;;
48911;SDS011;34722;52.108;5.044;2022-08-03T08:23:28;18.02;;;5.78;;
48911;SDS011;34722;52.108;5.044;2022-08-03T08:25:54;15.38;;;5.80;;
48911;SDS011;34722;52.108;5.044;2022-08-03T08:28:20;16.58;;;5.57;;
48911;SDS011;34722;52.108;5.044;2022-08-03T08:30:46;25.05;;;6.65;;
48911;SDS011;34722;52.108;5.044;2022-08-03T08:33:12;20.92;;;6.78;;
48911;SDS011;34722;52.108;5.044;2022-08-03T08:35:38;19.40;;;7.32;;
48911;SDS011;34722;52.108;5.044;2022-08-03T08:38:04;14.23;;;6.45;;
48911;SDS011;34722;52.108;5.044;2022-08-03T08:40:30;22.90;;;8.30;;
48911;SDS011;34722;52.108;5.044;2022-08-03T08:42:55;20.67;;;8.48;;
48911;SDS011;34722;52.108;5.044;2022-08-03T08:45:21;25.77;;;9.80;;
48911;SDS011;34722;52.108;5.044;2022-08-03T08:47:50;18.83;;;9.68;;
48911;SDS011;34722;52.108;5.044;2022-08-03T08:50:17;17.85;;;9.43;;
48911;SDS011;34722;52.108;5.044;2022-08-03T08:52:45;24.30;;;10.13;;
48911;SDS011;34722;52.108;5.044;2022-08-03T08:55:17;20.85;;;9.07;;
48911;SDS011;34722;52.108;5.044;2022-08-03T08:57:52;21.75;;;10.10;;
48911;SDS011;34722;52.108;5.044;2022-08-03T09:00:23;24.45;;;9.70;;
48911;SDS011;34722;52.108;5.044;2022-08-03T09:02:48;18.67;;;10.20;;
48911;SDS011;34722;52.108;5.044;2022-08-03T09:05:15;19.40;;;10.15;;
48911;SDS011;34722;52.108;5.044;2022-08-03T09:07:42;19.60;;;9.20;;
48911;SDS011;34722;52.108;5.044;2022-08-03T09:10:10;20.35;;;9.27;;
48911;SDS011;34722;52.108;5.044;2022-08-03T09:12:38;25.83;;;10.95;;
48911;SDS011;34722;52.108;5.044;2022-08-03T09:17:56;21.08;;;8.95;;
48911;SDS011;34722;52.108;5.044;2022-08-03T09:20:24;18.52;;;9.48;;
48911;SDS011;34722;52.108;5.044;2022-08-03T09:22:53;24.23;;;8.93;;
48911;SDS011;34722;52.108;5.044;2022-08-03T09:25:28;22.98;;;9.45;;
48911;SDS011;34722;52.108;5.044;2022-08-03T09:27:55;21.35;;;8.52;;
48911;SDS011;34722;52.108;5.044;2022-08-03T09:33:06;23.08;;;9.82;;
48911;SDS011;34722;52.108;5.044;2022-08-03T09:35:43;21.60;;;8.63;;
48911;SDS011;34722;52.108;5.044;2022-08-03T09:38:16;21.85;;;8.93;;
48911;SDS011;34722;52.108;5.044;2022-08-03T09:40:44;16.27;;;8.95;;
48911;SDS011;34722;52.108;5.044;2022-08-03T09:43:10;18.75;;;10.07;;
48911;SDS011;34722;52.108;5.044;2022-08-03T09:45:37;25.00;;;9.65;;
48911;SDS011;34722;52.108;5.044;2022-08-03T09:50:49;18.85;;;8.52;;
48911;SDS011;34722;52.108;5.044;2022-08-03T09:53:16;16.63;;;9.35;;
48911;SDS011;34722;52.108;5.044;2022-08-03T09:55:53;20.73;;;8.48;;
48911;SDS011;34722;52.108;5.044;2022-08-03T09:58:20;15.18;;;7.72;;
48911;SDS011;34722;52.108;5.044;2022-08-03T10:00:51;18.58;;;9.18;;
48911;SDS011;34722;52.108;5.044;2022-08-03T10:03:17;20.50;;;9.55;;
48911;SDS011;34722;52.108;5.044;2022-08-03T10:05:43;18.58;;;8.95;;
48911;SDS011;34722;52.108;5.044;2022-08-03T10:08:16;23.52;;;9.20;;
48911;SDS011;34722;52.108;5.044;2022-08-03T10:10:46;18.52;;;6.93;;
48911;SDS011;34722;52.108;5.044;2022-08-03T10:13:13;14.50;;;7.18;;
48911;SDS011;34722;52.108;5.044;2022-08-03T10:15:40;16.77;;;7.85;;
48911;SDS011;34722;52.108;5.044;2022-08-03T10:18:06;14.73;;;6.68;;
48911;SDS011;34722;52.108;5.044;2022-08-03T10:20:35;18.30;;;7.07;;
48911;SDS011;34722;52.108;5.044;2022-08-03T10:25:31;21.75;;;6.50;;
48911;SDS011;34722;52.108;5.044;2022-08-03T10:28:01;22.50;;;7.15;;
48911;SDS011;34722;52.108;5.044;2022-08-03T10:30:28;16.27;;;6.97;;
48911;SDS011;34722;52.108;5.044;2022-08-03T10:33:00;14.35;;;6.28;;
48911;SDS011;34722;52.108;5.044;2022-08-03T10:35:29;13.50;;;6.45;;
48911;SDS011;34722;52.108;5.044;2022-08-03T10:40:54;15.02;;;5.60;;
48911;SDS011;34722;52.108;5.044;2022-08-03T10:43:25;14.10;;;6.72;;
48911;SDS011;34722;52.108;5.044;2022-08-03T10:45:55;13.45;;;5.00;;
48911;SDS011;34722;52.108;5.044;2022-08-03T10:48:22;17.67;;;6.63;;
48911;SDS011;34722;52.108;5.044;2022-08-03T10:50:48;20.25;;;5.55;;
48911;SDS011;34722;52.108;5.044;2022-08-03T10:53:15;13.45;;;5.40;;
48911;SDS011;34722;52.108;5.044;2022-08-03T10:55:41;11.77;;;4.68;;
48911;SDS011;34722;52.108;5.044;2022-08-03T11:01:06;12.43;;;5.38;;
48911;SDS011;34722;52.108;5.044;2022-08-03T11:03:33;12.35;;;4.70;;
48911;SDS011;34722;52.108;5.044;2022-08-03T11:08:43;18.48;;;4.47;;
48911;SDS011;34722;52.108;5.044;2022-08-03T11:13:58;15.25;;;5.05;;
48911;SDS011;34722;52.108;5.044;2022-08-03T11:17:20;11.57;;;4.43;;
48911;SDS011;34722;52.108;5.044;2022-08-03T11:19:47;14.50;;;4.53;;
48911;SDS011;34722;52.108;5.044;2022-08-03T11:22:18;14.63;;;4.18;;
48911;SDS011;34722;52.108;5.044;2022-08-03T11:27:15;13.65;;;5.00;;
48911;SDS011;34722;52.108;5.044;2022-08-03T11:48:26;11.90;;;5.05;;
48911;SDS011;34722;52.108;5.044;2022-08-03T11:50:53;13.35;;;4.88;;
48911;SDS011;34722;52.108;5.044;2022-08-03T11:53:18;10.13;;;5.30;;
48911;SDS011;34722;52.108;5.044;2022-08-03T11:55:45;12.70;;;4.80;;
48911;SDS011;34722;52.108;5.044;2022-08-03T11:58:15;11.43;;;5.35;;
48911;SDS011;34722;52.108;5.044;2022-08-03T12:00:48;11.45;;;5.53;;
48911;SDS011;34722;52.108;5.044;2022-08-03T12:03:16;10.85;;;4.70;;
48911;SDS011;34722;52.108;5.044;2022-08-03T12:05:46;15.40;;;4.25;;
48911;SDS011;34722;52.108;5.044;2022-08-03T12:08:17;10.25;;;5.43;;
48911;SDS011;34722;52.108;5.044;2022-08-03T12:10:57;10.18;;;5.05;;
48911;SDS011;34722;52.108;5.044;2022-08-03T12:13:25;13.88;;;5.00;;
48911;SDS011;34722;52.108;5.044;2022-08-03T12:15:55;9.85;;;5.03;;
48911;SDS011;34722;52.108;5.044;2022-08-03T12:18:21;15.13;;;5.72;;
48911;SDS011;34722;52.108;5.044;2022-08-03T12:20:49;13.95;;;5.68;;
48911;SDS011;34722;52.108;5.044;2022-08-03T12:23:17;13.88;;;5.57;;
48911;SDS011;34722;52.108;5.044;2022-08-03T12:25:44;13.48;;;5.88;;
48911;SDS011;34722;52.108;5.044;2022-08-03T12:28:15;12.73;;;5.93;;
48911;SDS011;34722;52.108;5.044;2022-08-03T12:30:48;17.10;;;6.15;;
48911;SDS011;34722;52.108;5.044;2022-08-03T12:35:41;14.45;;;6.50;;
48911;SDS011;34722;52.108;5.044;2022-08-03T12:38:07;18.85;;;6.13;;
48911;SDS011;34722;52.108;5.044;2022-08-03T12:40:34;15.45;;;5.80;;
48911;SDS011;34722;52.108;5.044;2022-08-03T12:43:00;9.07;;;5.75;;
48911;SDS011;34722;52.108;5.044;2022-08-03T12:45:26;21.60;;;7.00;;
48911;SDS011;34722;52.108;5.044;2022-08-03T12:50:31;10.02;;;6.75;;
48911;SDS011;34722;52.108;5.044;2022-08-03T12:52:59;15.82;;;5.43;;
48911;SDS011;34722;52.108;5.044;2022-08-03T12:55:26;13.73;;;5.60;;
48911;SDS011;34722;52.108;5.044;2022-08-03T12:58:01;10.25;;;5.85;;
48911;SDS011;34722;52.108;5.044;2022-08-03T13:00:28;13.88;;;6.63;;
48911;SDS011;34722;52.108;5.044;2022-08-03T13:03:04;11.13;;;6.40;;
48911;SDS011;34722;52.108;5.044;2022-08-03T13:05:31;15.80;;;5.95;;
48911;SDS011;34722;52.108;5.044;2022-08-03T13:08:20;11.80;;;6.30;;
48911;SDS011;34722;52.108;5.044;2022-08-03T13:10:47;11.85;;;6.40;;
48911;SDS011;34722;52.108;5.044;2022-08-03T13:13:13;13.70;;;6.13;;
48911;SDS011;34722;52.108;5.044;2022-08-03T13:15:39;10.98;;;5.82;;
48911;SDS011;34722;52.108;5.044;2022-08-03T13:18:05;10.77;;;4.82;;
48911;SDS011;34722;52.108;5.044;2022-08-03T13:20:31;10.07;;;5.28;;
48911;SDS011;34722;52.108;5.044;2022-08-03T13:22:57;10.52;;;5.00;;
48911;SDS011;34722;52.108;5.044;2022-08-03T13:25:23;8.88;;;5.38;;
48911;SDS011;34722;52.108;5.044;2022-08-03T13:27:49;10.13;;;4.47;;
48911;SDS011;34722;52.108;5.044;2022-08-03T13:30:16;9.95;;;4.20;;
48911;SDS011;34722;52.108;5.044;2022-08-03T13:32:42;8.43;;;4.10;;
48911;SDS011;34722;52.108;5.044;2022-08-03T13:35:09;8.60;;;5.22;;
48911;SDS011;34722;52.108;5.044;2022-08-03T13:37:36;5.60;;;3.55;;
48911;SDS011;34722;52.108;5.044;2022-08-03T13:40:03;8.00;;;3.70;;
48911;SDS011;34722;52.108;5.044;2022-08-03T13:42:31;10.93;;;4.07;;
48911;SDS011;34722;52.108;5.044;2022-08-03T13:44:58;9.75;;;3.72;;
48911;SDS011;34722;52.108;5.044;2022-08-03T13:47:27;8.13;;;3.45;;
48911;SDS011;34722;52.108;5.044;2022-08-03T13:49:53;10.13;;;3.10;;
48911;SDS011;34722;52.108;5.044;2022-08-03T13:52:19;6.57;;;3.05;;
48911;SDS011;34722;52.108;5.044;2022-08-03T13:54:44;6.93;;;2.90;;
48911;SDS011;34722;52.108;5.044;2022-08-03T13:57:10;14.30;;;3.08;;
48911;SDS011;34722;52.108;5.044;2022-08-03T13:59:36;10.27;;;2.70;;
48911;SDS011;34722;52.108;5.044;2022-08-03T14:02:02;8.57;;;2.80;;
48911;SDS011;34722;52.108;5.044;2022-08-03T14:04:28;4.60;;;2.53;;
48911;SDS011;34722;52.108;5.044;2022-08-03T14:06:54;11.63;;;3.63;;
48911;SDS011;34722;52.108;5.044;2022-08-03T14:09:20;10.23;;;3.35;;
48911;SDS011;34722;52.108;5.044;2022-08-03T14:11:46;7.28;;;2.83;;
48911;SDS011;34722;52.108;5.044;2022-08-03T14:14:12;5.80;;;2.42;;
48911;SDS011;34722;52.108;5.044;2022-08-03T14:16:38;6.13;;;2.92;;
48911;SDS011;34722;52.108;5.044;2022-08-03T14:19:04;6.90;;;3.00;;
48911;SDS011;34722;52.108;5.044;2022-08-03T14:21:31;12.77;;;2.80;;
48911;SDS011;34722;52.108;5.044;2022-08-03T14:23:57;5.63;;;2.40;;
48911;SDS011;34722;52.108;5.044;2022-08-03T14:26:23;8.85;;;2.72;;
48911;SDS011;34722;52.108;5.044;2022-08-03T14:54:44;5.95;;;2.35;;
48911;SDS011;34722;52.108;5.044;2022-08-03T14:57:13;6.38;;;3.50;;
48911;SDS011;34722;52.108;5.044;2022-08-03T14:59:38;10.52;;;3.35;;
48911;SDS011;34722;52.108;5.044;2022-08-03T15:02:07;10.70;;;2.80;;
48911;SDS011;34722;52.108;5.044;2022-08-03T15:04:33;4.13;;;2.70;;
48911;SDS011;34722;52.108;5.044;2022-08-03T15:06:59;9.55;;;2.78;;
48911;SDS011;34722;52.108;5.044;2022-08-03T15:09:25;7.47;;;2.75;;
48911;SDS011;34722;52.108;5.044;2022-08-03T15:11:51;5.53;;;3.38;;
48911;SDS011;34722;52.108;5.044;2022-08-03T15:14:17;6.93;;;2.30;;
48911;SDS011;34722;52.108;5.044;2022-08-03T15:16:42;9.38;;;2.33;;
48911;SDS011;34722;52.108;5.044;2022-08-03T15:19:13;6.28;;;2.53;;
48911;SDS011;34722;52.108;5.044;2022-08-03T15:21:39;8.45;;;2.05;;
48911;SDS011;34722;52.108;5.044;2022-08-03T15:24:09;5.72;;;2.50;;
48911;SDS011;34722;52.108;5.044;2022-08-03T15:26:35;8.20;;;2.25;;
48911;SDS011;34722;52.108;5.044;2022-08-03T15:29:01;8.85;;;2.42;;
48911;SDS011;34722;52.108;5.044;2022-08-03T15:31:30;9.05;;;2.40;;
48911;SDS011;34722;52.108;5.044;2022-08-03T15:33:56;6.45;;;2.40;;
48911;SDS011;34722;52.108;5.044;2022-08-03T15:36:22;6.57;;;2.80;;
48911;SDS011;34722;52.108;5.044;2022-08-03T15:38:48;7.15;;;2.55;;
48911;SDS011;34722;52.108;5.044;2022-08-03T15:41:14;7.38;;;2.35;;
48911;SDS011;34722;52.108;5.044;2022-08-03T15:43:40;6.97;;;2.38;;
48911;SDS011;34722;52.108;5.044;2022-08-03T15:46:11;6.93;;;2.50;;
48911;SDS011;34722;52.108;5.044;2022-08-03T15:48:38;6.43;;;2.25;;
48911;SDS011;34722;52.108;5.044;2022-08-03T15:51:08;6.75;;;2.60;;
48911;SDS011;34722;52.108;5.044;2022-08-03T15:53:36;8.75;;;2.75;;
48911;SDS011;34722;52.108;5.044;2022-08-03T15:56:02;5.18;;;2.58;;
48911;SDS011;34722;52.108;5.044;2022-08-03T15:58:29;5.30;;;2.15;;
48911;SDS011;34722;52.108;5.044;2022-08-03T16:00:58;6.55;;;2.33;;
48911;SDS011;34722;52.108;5.044;2022-08-03T16:03:26;6.75;;;2.63;;
48911;SDS011;34722;52.108;5.044;2022-08-03T16:05:58;5.10;;;2.20;;
48911;SDS011;34722;52.108;5.044;2022-08-03T16:08:26;6.60;;;2.22;;
48911;SDS011;34722;52.108;5.044;2022-08-03T16:10:51;6.25;;;2.50;;
48911;SDS011;34722;52.108;5.044;2022-08-03T16:13:17;5.60;;;2.22;;
48911;SDS011;34722;52.108;5.044;2022-08-03T16:15:43;7.25;;;2.20;;